Time;durP1;ratioP1;P1;durP2;ratioP2;P2;SDS_P1;SDS_P2;PMS_P1;PMS_P2;Temp;Humidity;BMP_temperature;BMP_pressure;BME280_temperature;BME280_humidity;BME280_pressure;Samples;Min_cycle;Max_cycle;Signal;HPM_P1;HPM_P2
2021/11/26 00:00:55;;;;;;;12.80;6.50;;;1.20;99.90;1.00;95549.00;;;;5036453;28;20439;-73
2021/11/26 00:03:44;;;;;;;8.20;6.13;;;1.30;99.90;0.60;95546.00;;;;5033154;28;20530;-74
2021/11/26 00:06:33;;;;;;;10.63;6.27;;;1.20;99.90;0.40;95549.00;;;;5033884;28;20454;-74
2021/11/26 00:09:23;;;;;;;10.10;6.80;;;1.10;99.90;0.50;95539.00;;;;5032317;28;21120;-73
2021/11/26 00:12:13;;;;;;;9.40;6.40;;;1.10;99.90;0.70;95536.00;;;;5033680;28;20459;-73
2021/11/26 00:15:13;;;;;;;9.40;7.53;;;1.00;99.90;0.50;95543.00;;;;5031158;28;20832;-73
2021/11/26 00:18:05;;;;;;;16.30;7.00;;;1.00;99.90;0.70;95530.00;;;;5033388;28;20743;-73
2021/11/26 00:20:55;;;;;;;8.97;6.37;;;1.00;99.90;0.80;95536.00;;;;5032079;28;20466;-73
2021/11/26 00:23:44;;;;;;;11.50;6.73;;;1.10;99.90;0.80;95528.00;;;;5035111;28;20492;-73
2021/11/26 00:26:36;;;;;;;9.40;6.37;;;1.10;99.90;1.10;95534.00;;;;5034475;28;20439;-74
2021/11/26 00:29:25;;;;;;;10.23;7.37;;;1.20;99.90;1.30;95527.00;;;;5033077;28;20469;-74
2021/11/26 00:32:14;;;;;;;10.73;6.67;;;1.30;99.90;1.20;95523.00;;;;5032713;28;20723;-73
2021/11/26 00:35:03;;;;;;;9.43;6.37;;;1.40;99.90;0.80;95513.00;;;;5036101;28;20438;-73
2021/11/26 00:37:52;;;;;;;6.17;4.77;;;1.30;99.90;0.60;95505.00;;;;5033039;28;20443;-73
2021/11/26 00:40:41;;;;;;;13.50;7.37;;;1.30;99.90;0.60;95505.00;;;;5032274;28;21106;-73
2021/11/26 00:43:32;;;;;;;11.10;6.80;;;1.20;99.90;0.60;95496.00;;;;5038584;28;22054;-74
2021/11/26 00:46:21;;;;;;;8.87;6.33;;;1.20;99.90;0.70;95495.00;;;;5034777;28;20700;-74
2021/11/26 00:49:10;;;;;;;12.13;7.57;;;1.20;99.90;0.80;95478.00;;;;5041785;28;20561;-74
2021/11/26 00:51:59;;;;;;;12.30;6.90;;;1.10;99.90;0.90;95482.00;;;;5042040;28;20473;-74
2021/11/26 00:54:48;;;;;;;9.07;6.83;;;1.20;99.90;0.80;95482.00;;;;5040546;28;20461;-74
2021/11/26 00:57:37;;;;;;;10.37;6.30;;;1.20;99.90;1.00;95482.00;;;;5040941;28;20463;-74
2021/11/26 01:00:27;;;;;;;6.87;5.93;;;1.20;99.90;0.90;95479.00;;;;5041552;28;20427;-74
2021/11/26 01:03:16;;;;;;;7.93;6.47;;;1.20;99.90;0.90;95466.00;;;;5047824;28;20803;-74
2021/11/26 01:06:05;;;;;;;8.80;6.37;;;1.20;99.90;0.80;95473.00;;;;5036081;28;20447;-74
2021/11/26 01:08:54;;;;;;;10.03;6.67;;;1.20;99.90;0.80;95462.00;;;;5037156;28;20557;-74
2021/11/26 01:11:43;;;;;;;8.00;5.73;;;1.20;99.90;0.90;95463.00;;;;5043064;28;20474;-74
2021/11/26 01:14:32;;;;;;;7.30;6.50;;;0.70;99.90;1.00;95444.00;;;;5042361;28;20426;-74
2021/11/26 01:17:22;;;;;;;10.20;6.53;;;1.30;99.90;1.10;95443.00;;;;5044803;28;20448;-74
2021/11/26 01:20:17;;;;;;;7.10;5.70;;;1.30;99.90;0.80;95442.00;;;;5041039;28;20855;-75
2021/11/26 01:23:07;;;;;;;5.97;4.43;;;1.30;99.90;0.70;95440.00;;;;5040351;28;20454;-74
2021/11/26 01:25:56;;;;;;;11.40;6.40;;;1.30;99.90;0.70;95442.00;;;;5046369;28;20518;-74
2021/11/26 01:28:46;;;;;;;9.13;6.17;;;1.30;99.90;0.90;95437.00;;;;5042325;28;20467;-74
2021/11/26 01:31:37;;;;;;;11.03;7.43;;;1.30;99.90;1.10;95427.00;;;;5036882;28;20455;-75
2021/11/26 01:34:27;;;;;;;10.43;7.40;;;1.30;99.90;1.00;95410.00;;;;5043279;28;20565;-75
2021/11/26 01:37:16;;;;;;;8.80;6.60;;;1.30;99.90;1.10;95419.00;;;;5036485;28;20431;-74
2021/11/26 01:40:07;;;;;;;7.73;6.37;;;1.30;99.90;0.90;95421.00;;;;5042840;28;20445;-74
2021/11/26 01:42:57;;;;;;;12.10;7.60;;;1.30;99.90;1.00;95412.00;;;;5044265;28;22007;-73
2021/11/26 01:45:50;;;;;;;12.97;7.60;;;1.30;99.90;1.00;95402.00;;;;5040997;28;20431;-74
2021/11/26 01:48:41;;;;;;;9.13;6.27;;;1.30;99.90;1.00;95397.00;;;;5036672;28;20481;-74
2021/11/26 01:51:32;;;;;;;10.67;7.13;;;1.30;99.90;0.80;95397.00;;;;5034487;28;21030;-75
2021/11/26 01:54:20;;;;;;;12.87;6.53;;;1.30;99.90;1.00;95394.00;;;;5040143;28;20529;-74
2021/11/26 01:57:10;;;;;;;7.77;5.70;;;1.30;99.90;1.00;95386.00;;;;5045089;28;20443;-74
2021/11/26 01:59:59;;;;;;;9.80;6.60;;;1.30;99.90;1.00;95387.00;;;;5035864;28;20439;-74
2021/11/26 02:02:47;;;;;;;11.77;7.57;;;1.30;99.90;1.00;95390.00;;;;5044934;28;20997;-73
2021/11/26 02:05:37;;;;;;;10.50;7.57;;;1.30;99.90;0.90;95379.00;;;;5035785;28;20423;-75
2021/11/26 02:08:27;;;;;;;10.53;5.97;;;1.30;99.90;0.80;95383.00;;;;5040350;28;20467;-74
2021/11/26 02:11:16;;;;;;;13.13;6.37;;;-0.20;99.90;1.00;95380.00;;;;5044585;28;20463;-74
2021/11/26 02:14:05;;;;;;;9.20;6.30;;;1.30;99.90;1.10;95379.00;;;;5036810;28;22008;-74
2021/11/26 02:16:54;;;;;;;7.70;5.97;;;1.30;99.90;0.90;95379.00;;;;5041682;28;20432;-74
2021/11/26 02:19:44;;;;;;;8.37;6.43;;;1.30;99.90;0.90;95369.00;;;;5037816;28;22049;-76
2021/11/26 02:22:34;;;;;;;9.67;6.77;;;1.30;99.90;0.80;95357.00;;;;5035540;28;20970;-76
2021/11/26 02:25:25;;;;;;;8.50;6.13;;;1.20;99.90;0.70;95346.00;;;;5049520;28;20435;-76
2021/11/26 02:28:17;;;;;;;10.23;7.47;;;1.20;99.90;0.80;95346.00;;;;5061319;28;20817;-75
2021/11/26 02:31:06;;;;;;;7.47;6.20;;;1.20;99.90;0.60;95337.00;;;;5063109;28;20431;-75
2021/11/26 02:33:55;;;;;;;8.43;5.60;;;1.10;99.90;0.60;95327.00;;;;5062114;28;20810;-76
2021/11/26 02:36:44;;;;;;;11.33;6.17;;;1.10;99.90;0.70;95325.00;;;;5063684;28;20434;-76
2021/11/26 02:39:34;;;;;;;13.53;7.40;;;1.10;99.90;0.70;95332.00;;;;5063401;28;20813;-75
2021/11/26 02:42:26;;;;;;;7.97;5.97;;;1.10;99.90;0.70;95325.00;;;;5062739;28;20434;-76
2021/11/26 02:45:15;;;;;;;10.63;7.07;;;1.10;99.90;0.80;95316.00;;;;5061475;28;20431;-75
2021/11/26 02:48:05;;;;;;;9.17;5.90;;;1.10;99.90;1.00;95314.00;;;;5065228;28;20423;-75
2021/11/26 02:50:54;;;;;;;9.90;6.50;;;1.10;99.90;0.90;95305.00;;;;5064806;28;20433;-76
2021/11/26 02:53:43;;;;;;;9.17;6.80;;;1.20;99.90;1.00;95296.00;;;;5062902;28;20423;-76
2021/11/26 02:56:33;;;;;;;11.93;5.13;;;1.20;99.90;0.90;95293.00;;;;5052619;28;20437;-76
2021/11/26 02:59:22;;;;;;;10.17;7.37;;;1.20;99.90;0.90;95291.00;;;;5063205;28;20430;-76
2021/11/26 03:02:11;;;;;;;9.50;6.67;;;1.20;99.90;0.90;95287.00;;;;5061616;28;20451;-75
2021/11/26 03:05:00;;;;;;;10.23;6.90;;;1.20;99.90;1.00;95272.00;;;;5058283;28;20423;-76
2021/11/26 03:07:49;;;;;;;6.40;5.13;;;2.20;99.90;1.20;95284.00;;;;5055096;28;20652;-76
2021/11/26 03:10:39;;;;;;;14.47;6.77;;;1.20;99.90;1.30;95270.00;;;;5048227;28;20470;-75
2021/11/26 03:13:29;;;;;;;8.30;6.07;;;1.30;99.90;1.20;95264.00;;;;5056751;28;20442;-76
2021/11/26 03:16:18;;;;;;;8.50;6.90;;;1.40;99.90;0.90;95257.00;;;;5058882;28;20430;-75
2021/11/26 03:19:07;;;;;;;8.53;6.37;;;1.40;99.90;0.90;95253.00;;;;5064527;28;20433;-75
2021/11/26 03:21:55;;;;;;;7.70;6.57;;;1.40;99.90;0.90;95253.00;;;;5064995;28;20438;-76
2021/11/26 03:24:44;;;;;;;8.53;6.27;;;1.30;99.90;0.90;95247.00;;;;5059855;28;20434;-75
2021/11/26 03:27:33;;;;;;;8.60;6.57;;;1.40;99.90;1.00;95248.00;;;;5062397;28;20437;-75
2021/11/26 03:30:24;;;;;;;7.97;6.70;;;1.30;99.90;1.00;95250.00;;;;5042905;28;20463;-75
2021/11/26 03:33:13;;;;;;;10.17;6.67;;;1.20;99.90;1.10;95245.00;;;;5067355;28;20438;-75
2021/11/26 03:36:02;;;;;;;10.43;7.20;;;1.30;99.90;1.20;95243.00;;;;5064742;28;20435;-75
2021/11/26 03:38:51;;;;;;;10.07;6.37;;;1.40;99.90;1.30;95236.00;;;;5065419;28;20430;-75
2021/11/26 03:41:40;;;;;;;14.83;7.80;;;1.00;99.90;1.30;95232.00;;;;5065369;28;20446;-76
2021/11/26 03:44:29;;;;;;;9.83;7.10;;;1.40;99.90;1.30;95233.00;;;;5064433;28;20422;-76
2021/11/26 03:47:20;;;;;;;9.20;6.20;;;1.50;99.90;1.40;95230.00;;;;5060010;28;20453;-76
2021/11/26 03:50:10;;;;;;;10.93;7.23;;;1.50;99.90;1.40;95227.00;;;;5047723;28;20477;-75
2021/11/26 03:52:59;;;;;;;10.17;7.20;;;1.50;99.90;1.40;95225.00;;;;5063422;28;20450;-75
2021/11/26 03:55:48;;;;;;;11.77;7.37;;;1.50;99.90;1.40;95218.00;;;;5061284;28;20434;-75
2021/11/26 03:58:37;;;;;;;10.20;6.60;;;1.60;99.90;1.40;95213.00;;;;5062872;28;20450;-77
2021/11/26 04:01:26;;;;;;;8.23;6.27;;;1.60;99.90;1.20;95208.00;;;;5059171;28;20454;-77
2021/11/26 04:04:16;;;;;;;9.93;6.40;;;1.60;99.90;1.20;95205.00;;;;5058521;28;20415;-77
2021/11/26 04:07:05;;;;;;;13.67;6.77;;;1.60;99.90;1.20;95203.00;;;;5063926;28;20434;-77
2021/11/26 04:09:56;;;;;;;11.77;7.33;;;1.60;99.90;1.20;95197.00;;;;5063949;28;20858;-77
2021/11/26 04:12:48;;;;;;;10.53;7.37;;;1.50;99.90;1.20;95192.00;;;;5052275;28;20455;-76
2021/11/26 04:15:38;;;;;;;10.27;6.47;;;1.50;99.90;1.20;95189.00;;;;5062009;28;20461;-76
2021/11/26 04:18:27;;;;;;;9.73;7.20;;;1.50;99.90;1.20;95190.00;;;;5055558;28;20425;-75
2021/11/26 04:21:18;;;;;;;9.37;6.70;;;1.50;99.90;1.40;95190.00;;;;5063144;28;20836;-76
2021/11/26 04:24:06;;;;;;;6.53;5.90;;;1.60;99.90;1.50;95183.00;;;;5062588;28;20426;-76
2021/11/26 04:26:55;;;;;;;10.33;6.90;;;1.50;99.90;1.60;95189.00;;;;5063696;28;20449;-75
2021/11/26 04:29:44;;;;;;;11.60;7.60;;;1.60;99.90;1.20;95184.00;;;;5062924;28;20466;-77
2021/11/26 04:32:33;;;;;;;9.27;7.23;;;1.60;99.90;1.20;95165.00;;;;5063897;28;20493;-77
2021/11/26 04:35:23;;;;;;;14.40;6.70;;;1.60;99.90;1.30;95161.00;;;;5062550;28;20957;-77
2021/11/26 04:38:13;;;;;;;15.47;7.07;;;1.60;99.90;1.30;95158.00;;;;5061814;28;20445;-76
2021/11/26 04:41:02;;;;;;;13.70;8.10;;;1.60;99.90;1.40;95159.00;;;;5063126;28;20419;-77
2021/11/26 04:43:51;;;;;;;10.33;6.43;;;1.60;99.90;1.50;95156.00;;;;5063554;28;20434;-76
2021/11/26 04:46:40;;;;;;;12.27;7.60;;;1.70;99.90;1.70;95163.00;;;;5062280;28;20427;-77
2021/11/26 04:49:28;;;;;;;10.60;7.60;;;1.70;99.90;1.70;95161.00;;;;5062825;28;20430;-77
2021/11/26 04:52:17;;;;;;;12.43;8.13;;;1.70;99.90;1.80;95164.00;;;;5061761;28;20446;-77
2021/11/26 04:55:12;;;;;;;15.40;8.03;;;1.80;99.90;1.90;95163.00;;;;5051720;28;20423;-77
2021/11/26 04:58:01;;;;;;;11.80;7.30;;;1.80;99.90;1.80;95159.00;;;;5060865;28;20446;-77
2021/11/26 05:00:50;;;;;;;54.93;34.03;;;1.90;99.90;1.60;95149.00;;;;5060781;28;20434;-77
2021/11/26 05:03:38;;;;;;;17.27;11.20;;;1.90;99.90;1.50;95136.00;;;;5062916;28;20452;-74
2021/11/26 05:06:27;;;;;;;12.70;9.30;;;1.90;99.90;1.60;95131.00;;;;5062305;28;20464;-78
2021/11/26 05:09:16;;;;;;;10.47;6.60;;;1.90;99.90;1.60;95143.00;;;;5052274;28;20415;-76
2021/11/26 05:12:08;;;;;;;11.47;6.50;;;1.80;99.90;1.60;95128.00;;;;5062889;28;20446;-76
2021/11/26 05:14:57;;;;;;;11.43;8.30;;;1.90;99.90;1.40;95120.00;;;;5043708;28;20431;-79
2021/11/26 05:17:46;;;;;;;10.60;8.30;;;1.80;99.90;1.40;95127.00;;;;5061216;28;20934;-79
2021/11/26 05:20:35;;;;;;;11.00;7.77;;;1.80;99.90;1.60;95116.00;;;;5050364;28;20426;-79
2021/11/26 05:23:26;;;;;;;11.17;7.53;;;1.80;99.90;1.70;95111.00;;;;5062230;28;20503;-79
2021/11/26 05:26:14;;;;;;;9.23;7.20;;;1.80;99.90;1.60;95120.00;;;;5062471;28;20433;-78
2021/11/26 05:29:05;;;;;;;10.43;7.67;;;1.90;99.90;1.50;95117.00;;;;5053239;28;20434;-78
2021/11/26 05:31:54;;;;;;;11.23;6.63;;;1.90;99.90;1.60;95121.00;;;;5052025;28;20500;-77
2021/11/26 05:34:43;;;;;;;10.30;6.90;;;1.80;99.90;1.70;95109.00;;;;5057612;28;20434;-77
2021/11/26 05:37:32;;;;;;;12.40;6.80;;;1.90;99.90;1.70;95120.00;;;;5064561;28;21217;-77
2021/11/26 05:40:23;;;;;;;13.07;6.47;;;1.80;99.90;1.70;95104.00;;;;5061150;28;20439;-78
2021/11/26 05:43:11;;;;;;;13.70;7.47;;;1.90;99.90;1.60;95106.00;;;;5058337;28;20946;-76
2021/11/26 05:46:02;;;;;;;7.87;5.83;;;1.90;99.90;1.60;95116.00;;;;5064932;28;20433;-77
2021/11/26 05:48:51;;;;;;;10.77;6.83;;;1.90;99.90;1.60;95115.00;;;;5065647;28;21107;-77
2021/11/26 05:51:40;;;;;;;10.27;7.43;;;1.90;99.90;1.50;95108.00;;;;5066690;28;20469;-77
2021/11/26 05:54:29;;;;;;;11.60;7.40;;;1.90;99.90;1.60;95105.00;;;;5069292;28;20794;-77
2021/11/26 05:57:18;;;;;;;7.63;6.27;;;1.90;99.90;1.70;95113.00;;;;5070786;28;20446;-76
2021/11/26 06:00:12;;;;;;;11.23;6.97;;;1.90;99.90;1.70;95110.00;;;;5068391;28;20415;-77
2021/11/26 06:03:03;;;;;;;7.73;6.27;;;2.10;99.90;1.80;95096.00;;;;5068956;28;20877;-77
2021/11/26 06:05:52;;;;;;;10.13;6.17;;;1.90;99.90;1.70;95103.00;;;;5069996;28;20426;-75
2021/11/26 06:08:41;;;;;;;10.80;6.80;;;1.90;99.90;1.70;95108.00;;;;5072062;28;20429;-75
2021/11/26 06:11:30;;;;;;;11.63;7.23;;;1.90;99.90;1.50;95107.00;;;;5069538;28;20470;-74
2021/11/26 06:14:19;;;;;;;12.00;7.87;;;1.90;99.90;1.40;95097.00;;;;5072463;28;20837;-75
2021/11/26 06:17:08;;;;;;;12.17;6.83;;;1.90;99.90;1.40;95100.00;;;;5069027;28;20898;-74
2021/11/26 06:19:59;;;;;;;13.50;8.03;;;1.80;99.90;1.60;95096.00;;;;5062639;28;20427;-75
2021/11/26 06:22:48;;;;;;;9.10;5.80;;;1.80;99.90;1.60;95096.00;;;;5059219;28;20447;-75
2021/11/26 06:25:37;;;;;;;9.20;7.00;;;1.80;99.90;1.60;95086.00;;;;5055441;28;20418;-75
2021/11/26 06:28:26;;;;;;;13.50;7.60;;;1.80;99.90;1.50;95073.00;;;;5069554;28;20423;-78
2021/11/26 06:31:14;;;;;;;9.20;6.73;;;1.80;99.90;1.70;95065.00;;;;5069893;28;20455;-78
2021/11/26 06:34:04;;;;;;;11.07;7.10;;;1.90;99.90;1.80;95076.00;;;;5069981;28;20959;-77
2021/11/26 06:36:54;;;;;;;9.80;7.10;;;1.90;99.90;1.90;95068.00;;;;5070229;28;20426;-76
2021/11/26 06:39:43;;;;;;;13.13;7.63;;;1.90;99.90;1.90;95074.00;;;;5062570;28;20437;-74
2021/11/26 06:42:32;;;;;;;9.00;8.10;;;1.90;99.90;2.00;95077.00;;;;5071674;28;20447;-74
2021/11/26 06:45:21;;;;;;;11.67;7.50;;;2.00;99.90;1.90;95066.00;;;;5061770;28;20953;-75
2021/11/26 06:48:10;;;;;;;12.60;7.57;;;2.00;99.90;2.00;95071.00;;;;5068210;28;20418;-75
2021/11/26 06:51:00;;;;;;;12.10;8.10;;;1.90;99.90;2.00;95084.00;;;;5064980;28;20470;-75
2021/11/26 06:53:50;;;;;;;13.10;8.27;;;2.10;99.90;2.10;95075.00;;;;5065344;28;20422;-76
2021/11/26 06:56:39;;;;;;;11.90;7.60;;;2.10;99.90;2.10;95072.00;;;;5064302;28;20431;-76
2021/11/26 06:59:28;;;;;;;10.50;6.47;;;2.10;99.90;2.10;95073.00;;;;5060885;28;20422;-76
2021/11/26 07:02:16;;;;;;;13.43;8.83;;;2.10;99.90;2.10;95070.00;;;;5066735;28;20753;-75
2021/11/26 07:05:07;;;;;;;13.80;8.87;;;2.10;99.90;2.10;95074.00;;;;5067726;28;20441;-76
2021/11/26 07:07:56;;;;;;;12.63;10.67;;;2.20;99.90;2.10;95061.00;;;;5067919;28;20430;-75
2021/11/26 07:10:46;;;;;;;11.07;8.57;;;2.20;99.90;2.20;95059.00;;;;5056271;28;20458;-76
2021/11/26 07:13:35;;;;;;;11.40;8.20;;;2.20;99.90;2.20;95061.00;;;;5062201;28;20423;-75
2021/11/26 07:16:24;;;;;;;14.13;9.27;;;2.20;99.90;2.20;95056.00;;;;5066493;28;20827;-74
2021/11/26 07:19:13;;;;;;;12.80;9.37;;;2.20;99.90;2.10;95063.00;;;;5060806;28;20430;-76
2021/11/26 07:22:02;;;;;;;16.80;9.03;;;2.20;99.90;2.10;95051.00;;;;5049991;28;20838;-75
2021/11/26 07:24:51;;;;;;;14.87;8.93;;;2.20;99.90;2.10;95039.00;;;;5049009;28;20430;-76
2021/11/26 07:27:42;;;;;;;13.83;8.57;;;2.30;99.90;2.20;95036.00;;;;5063390;28;20604;-74
2021/11/26 07:30:31;;;;;;;9.80;8.07;;;2.30;99.90;2.30;95034.00;;;;5062613;28;20511;-76
2021/11/26 07:33:20;;;;;;;14.07;8.67;;;2.30;99.90;2.40;95027.00;;;;5065636;28;20864;-76
2021/11/26 07:36:09;;;;;;;16.87;8.93;;;2.40;99.90;2.40;95029.00;;;;5069250;28;20425;-76
2021/11/26 07:38:58;;;;;;;15.53;10.03;;;2.40;99.90;2.40;95008.00;;;;5067734;28;20430;-76
2021/11/26 07:41:47;;;;;;;16.70;9.93;;;2.40;99.90;2.40;95003.00;;;;5059191;28;20457;-77
2021/11/26 07:44:40;;;;;;;13.07;8.20;;;2.40;99.90;2.40;94998.00;;;;5068000;28;20439;-77
2021/11/26 07:47:29;;;;;;;20.37;10.80;;;2.40;99.90;2.40;94995.00;;;;5071428;28;20449;-75
2021/11/26 07:50:18;;;;;;;19.90;11.30;;;2.40;99.90;2.40;94993.00;;;;5065090;28;20415;-76
2021/11/26 07:53:07;;;;;;;14.13;10.77;;;2.50;99.90;2.40;94990.00;;;;5059919;28;20486;-76
2021/11/26 07:55:56;;;;;;;13.20;8.63;;;2.50;99.90;2.40;94989.00;;;;5057193;28;20439;-77
2021/11/26 07:58:46;;;;;;;13.20;8.47;;;2.50;99.90;2.40;94975.00;;;;5066415;28;20442;-76
2021/11/26 08:01:36;;;;;;;10.00;8.77;;;2.50;99.90;2.40;94975.00;;;;5067508;28;20447;-78
2021/11/26 08:04:25;;;;;;;8.03;6.50;;;2.50;99.90;2.50;94961.00;;;;5064209;28;20425;-78
2021/11/26 08:07:13;;;;;;;9.57;6.77;;;2.50;99.90;2.50;94957.00;;;;5065372;28;20647;-78
2021/11/26 08:10:04;;;;;;;9.53;6.50;;;2.50;99.90;2.60;94956.00;;;;5065354;28;20456;-79
2021/11/26 08:12:53;;;;;;;8.70;5.83;;;2.50;99.90;2.60;94940.00;;;;5063997;28;20474;-78
2021/11/26 08:15:43;;;;;;;6.60;5.87;;;2.60;99.90;2.60;94932.00;;;;5064165;28;20427;-78
2021/11/26 08:18:33;;;;;;;7.37;5.63;;;2.60;99.90;2.70;94926.00;;;;5063930;28;20956;-78
2021/11/26 08:21:22;;;;;;;7.00;6.20;;;2.70;99.90;2.80;94937.00;;;;5066836;28;20454;-78
2021/11/26 08:24:12;;;;;;;10.40;7.37;;;2.70;99.90;2.70;94913.00;;;;5057763;28;20938;-77
2021/11/26 08:27:03;;;;;;;10.40;7.50;;;2.80;99.90;2.80;94920.00;;;;5054713;28;20423;-74
2021/11/26 08:29:52;;;;;;;11.77;8.70;;;3.70;99.90;2.80;94917.00;;;;5063690;28;20439;-75
2021/11/26 08:32:42;;;;;;;13.53;9.83;;;2.80;99.90;2.70;94918.00;;;;5052270;28;20466;-75
2021/11/26 08:35:33;;;;;;;11.47;8.77;;;2.80;99.90;2.80;94904.00;;;;5052057;28;20823;-74
2021/11/26 08:38:22;;;;;;;13.87;9.93;;;2.80;99.90;2.80;94901.00;;;;5056972;28;20432;-74
2021/11/26 08:41:11;;;;;;;14.90;10.37;;;2.80;99.90;2.80;94910.00;;;;5053585;28;20450;-74
2021/11/26 08:44:00;;;;;;;15.27;9.17;;;2.80;99.90;2.80;94902.00;;;;5063843;28;21099;-74
2021/11/26 08:46:49;;;;;;;11.23;8.17;;;2.80;99.90;2.80;94895.00;;;;5059264;28;20419;-75
2021/11/26 08:49:37;;;;;;;9.63;8.27;;;2.80;99.90;2.80;94892.00;;;;5051344;28;20445;-75
2021/11/26 08:52:28;;;;;;;13.13;8.87;;;2.80;99.90;2.80;94897.00;;;;5051946;28;20474;-74
2021/11/26 08:55:18;;;;;;;12.10;8.50;;;2.80;99.90;2.80;94885.00;;;;5054691;28;20419;-74
2021/11/26 08:58:09;;;;;;;9.03;7.07;;;2.80;99.90;2.80;94885.00;;;;5057869;28;20450;-74
2021/11/26 09:00:58;;;;;;;9.67;7.43;;;2.80;99.90;2.80;94875.00;;;;5063922;28;20441;-74
2021/11/26 09:03:50;;;;;;;9.40;8.13;;;2.90;99.90;2.70;94878.00;;;;5064581;28;20938;-74
2021/11/26 09:06:39;;;;;;;8.03;6.43;;;2.20;99.90;2.80;94873.00;;;;5059979;28;20426;-74
2021/11/26 09:09:29;;;;;;;6.63;5.93;;;2.80;99.90;2.80;94868.00;;;;5064175;28;20417;-74
2021/11/26 09:12:18;;;;;;;8.93;5.97;;;2.80;99.90;2.80;94872.00;;;;5068337;28;21023;-74
2021/11/26 09:15:08;;;;;;;8.27;5.73;;;2.80;99.90;2.80;94873.00;;;;5062442;28;20433;-74
2021/11/26 09:17:57;;;;;;;8.00;6.23;;;2.80;99.90;2.80;94858.00;;;;5073090;28;20438;-74
2021/11/26 09:20:50;;;;;;;9.57;5.87;;;2.80;99.90;2.90;94860.00;;;;5064342;28;21076;-74
2021/11/26 09:23:39;;;;;;;8.60;5.83;;;2.90;99.90;2.70;94848.00;;;;5065477;28;20422;-74
2021/11/26 09:26:29;;;;;;;8.77;7.43;;;2.90;99.90;2.60;94850.00;;;;5069077;28;20415;-74
2021/11/26 09:29:18;;;;;;;8.87;6.20;;;2.90;99.90;2.70;94847.00;;;;5068031;28;20474;-74
2021/11/26 09:32:08;;;;;;;8.20;6.27;;;2.90;99.90;2.70;94830.00;;;;5067784;28;20991;-74
2021/11/26 09:34:57;;;;;;;8.47;6.43;;;2.90;99.90;2.60;94834.00;;;;5067301;28;20438;-74
2021/11/26 09:37:46;;;;;;;14.37;6.97;;;2.80;99.90;2.60;94842.00;;;;5066336;28;20434;-75
2021/11/26 09:40:35;;;;;;;8.73;6.00;;;2.80;99.90;2.60;94828.00;;;;5063722;28;20423;-74
2021/11/26 09:43:26;;;;;;;11.90;6.93;;;2.80;99.90;2.60;94817.00;;;;5058074;28;20410;-75
2021/11/26 09:46:17;;;;;;;6.87;6.17;;;2.80;99.90;2.60;94817.00;;;;5055339;28;20938;-75
2021/11/26 09:49:07;;;;;;;9.20;6.60;;;2.80;99.90;2.60;94811.00;;;;5063398;28;20430;-74
2021/11/26 09:51:56;;;;;;;8.80;6.47;;;2.80;99.90;2.70;94801.00;;;;5058921;28;20454;-75
2021/11/26 09:54:47;;;;;;;9.30;5.90;;;2.80;99.90;2.60;94796.00;;;;5051337;28;20430;-75
2021/11/26 09:57:40;;;;;;;10.33;6.07;;;2.80;99.90;2.60;94796.00;;;;5056269;28;20458;-75
2021/11/26 10:00:30;;;;;;;8.07;6.13;;;2.80;99.90;2.60;94783.00;;;;5059156;28;20443;-75
2021/11/26 10:03:22;;;;;;;8.03;5.70;;;2.80;99.90;2.70;94771.00;;;;5061464;28;20430;-74
2021/11/26 10:06:26;;;;;;;7.67;6.13;;;2.80;99.90;2.70;94772.00;;;;5052115;28;20439;-75
2021/11/26 10:09:19;;;;;;;8.57;5.93;;;2.80;99.90;2.70;94764.00;;;;5053799;28;20439;-74
2021/11/26 10:12:14;;;;;;;9.73;5.80;;;2.80;99.90;2.70;94759.00;;;;5052757;28;20457;-75
2021/11/26 10:15:05;;;;;;;13.43;6.80;;;2.80;99.90;2.80;94750.00;;;;5056972;28;20434;-75
2021/11/26 10:18:11;;;;;;;6.97;6.17;;;2.80;99.90;2.70;94740.00;;;;5064970;28;20438;-75
2021/11/26 10:21:03;;;;;;;7.23;5.50;;;2.80;99.90;2.80;94742.00;;;;5058103;28;21082;-75
2021/11/26 10:23:53;;;;;;;8.43;5.80;;;2.80;99.90;2.80;94738.00;;;;5058465;28;20436;-75
2021/11/26 10:26:53;;;;;;;6.43;5.70;;;2.80;99.90;2.80;94725.00;;;;5057792;28;20499;-75
2021/11/26 10:29:44;;;;;;;8.97;6.53;;;2.90;99.90;2.90;94726.00;;;;5062505;28;20435;-75
2021/11/26 10:32:33;;;;;;;7.40;5.97;;;2.90;99.90;2.90;94721.00;;;;5059981;28;20462;-74
2021/11/26 10:35:26;;;;;;;8.23;6.30;;;2.90;99.90;2.90;94721.00;;;;5059191;28;20799;-77
2021/11/26 10:38:19;;;;;;;9.63;6.57;;;2.90;99.90;2.80;94706.00;;;;5060898;28;20457;-77
2021/11/26 10:41:13;;;;;;;7.23;5.93;;;2.90;99.90;2.80;94704.00;;;;5067259;28;20449;-76
2021/11/26 10:44:11;;;;;;;6.87;5.93;;;2.90;99.90;2.90;94698.00;;;;5067714;28;20964;-77
2021/11/26 10:47:13;;;;;;;5.97;5.47;;;2.90;99.90;2.90;94713.00;;;;5071428;28;20426;-77
2021/11/26 10:57:22;;;;;;;7.73;5.17;;;2.90;99.90;2.80;94704.00;;;;5062387;28;20457;-78
2021/11/26 11:00:16;;;;;;;7.33;4.30;;;2.90;99.90;2.90;94695.00;;;;5059762;28;20449;-77
2021/11/26 11:03:05;;;;;;;6.97;4.77;;;2.90;99.90;2.90;94696.00;;;;5066702;28;20474;-76
2021/11/26 11:05:54;;;;;;;5.07;4.57;;;2.90;99.90;2.70;94677.00;;;;5068299;28;20430;-76
2021/11/26 11:08:44;;;;;;;4.37;3.90;;;2.90;99.90;2.60;94673.00;;;;5067238;28;20422;-75
2021/11/26 11:11:34;;;;;;;4.03;3.60;;;2.90;99.90;2.80;94672.00;;;;5057848;28;20832;-75
2021/11/26 11:14:25;;;;;;;4.47;4.07;;;2.90;99.90;2.90;94671.00;;;;5069794;28;20850;-77
2021/11/26 11:17:14;;;;;;;6.77;4.37;;;2.90;99.90;2.70;94658.00;;;;5068173;28;20422;-77
2021/11/26 11:20:07;;;;;;;5.60;5.10;;;2.90;99.90;2.50;94657.00;;;;5071410;28;20420;-77
2021/11/26 11:22:56;;;;;;;5.20;4.80;;;2.90;99.90;2.50;94647.00;;;;5060357;28;20965;-77
2021/11/26 11:25:47;;;;;;;6.37;5.40;;;2.80;99.90;2.40;94660.00;;;;5054224;28;20424;-77
2021/11/26 11:28:37;;;;;;;5.57;4.90;;;2.80;99.90;2.40;94645.00;;;;5053377;28;20919;-77
2021/11/26 11:31:25;;;;;;;5.63;5.13;;;2.80;99.90;2.50;94644.00;;;;5068303;28;21001;-76
2021/11/26 11:34:19;;;;;;;7.30;5.53;;;2.80;99.90;2.50;94634.00;;;;5060412;28;20469;-77
2021/11/26 11:37:10;;;;;;;7.87;5.10;;;2.80;99.90;2.60;94629.00;;;;5066653;28;20423;-77
2021/11/26 11:40:03;;;;;;;7.10;4.30;;;2.80;99.90;2.60;94618.00;;;;5063878;28;20459;-77
2021/11/26 11:42:53;;;;;;;6.37;4.57;;;2.80;99.90;2.70;94618.00;;;;5064439;28;20945;-77
2021/11/26 11:45:57;;;;;;;3.97;3.43;;;2.80;99.90;2.70;94622.00;;;;5065976;28;20425;-77
2021/11/26 11:48:49;;;;;;;5.63;4.57;;;2.80;99.90;2.70;94611.00;;;;5065905;28;20461;-75
2021/11/26 11:51:48;;;;;;;6.80;4.83;;;2.80;99.90;2.80;94626.00;;;;5059163;28;20461;-76
2021/11/26 11:54:39;;;;;;;4.43;4.03;;;2.80;99.90;2.80;94621.00;;;;5062697;28;20473;-76
2021/11/26 11:57:30;;;;;;;5.63;4.70;;;2.90;99.90;2.80;94619.00;;;;5063582;28;20430;-75
2021/11/26 12:00:21;;;;;;;4.33;3.90;;;2.90;99.90;2.70;94612.00;;;;5065661;28;20431;-76
2021/11/26 12:03:16;;;;;;;4.57;3.80;;;2.90;99.90;2.70;94602.00;;;;5065223;28;20462;-75
2021/11/26 12:06:07;;;;;;;4.13;3.83;;;2.90;99.90;2.60;94599.00;;;;5065342;28;20479;-75
2021/11/26 12:08:56;;;;;;;4.60;4.00;;;2.80;99.90;2.50;94601.00;;;;5066419;28;20972;-75
2021/11/26 12:11:45;;;;;;;4.30;3.90;;;2.80;99.90;2.50;94601.00;;;;5066885;28;20454;-78
2021/11/26 12:14:50;;;;;;;4.60;3.67;;;2.70;99.90;2.40;94598.00;;;;5064474;28;20458;-78
2021/11/26 12:17:40;;;;;;;7.80;5.27;;;2.70;99.90;2.30;94576.00;;;;5064964;28;20433;-76
2021/11/26 12:20:30;;;;;;;5.03;4.43;;;2.60;99.90;2.30;94578.00;;;;5063100;28;20430;-76
2021/11/26 12:23:24;;;;;;;5.73;5.27;;;2.60;99.90;2.20;94575.00;;;;5065865;28;20415;-76
2021/11/26 12:26:17;;;;;;;3.47;3.17;;;2.60;99.90;2.00;94576.00;;;;5058715;28;20426;-77
2021/11/26 12:29:11;;;;;;;3.93;3.53;;;2.40;99.90;1.80;94570.00;;;;5064543;28;20430;-76
2021/11/26 12:32:08;;;;;;;3.63;3.20;;;2.40;99.90;1.60;94570.00;;;;5061844;28;20457;-75
2021/11/26 12:35:05;;;;;;;12.33;10.37;;;2.30;99.90;1.60;94571.00;;;;5063113;28;20477;-76
2021/11/26 12:38:00;;;;;;;9.27;8.27;;;2.10;99.90;1.70;94579.00;;;;5066432;28;20430;-76
2021/11/26 12:40:49;;;;;;;4.60;4.20;;;2.10;99.90;1.50;94584.00;;;;5061983;28;20427;-75
2021/11/26 12:43:50;;;;;;;4.33;3.53;;;2.00;99.90;1.50;94569.00;;;;5062797;28;20415;-76
2021/11/26 12:46:41;;;;;;;4.13;3.77;;;1.90;99.90;1.70;94567.00;;;;5075045;28;20426;-75
2021/11/26 12:51:03;;;;;;;3.17;2.90;;;1.90;99.90;1.70;94573.00;;;;5068765;28;20430;-76
2021/11/26 12:52:47;;;;;;;5.20;4.10;;;1.90;99.90;1.70;94570.00;;;;5071136;28;20458;-75
2021/11/26 12:55:37;;;;;;;4.90;4.23;;;1.90;99.90;1.80;94566.00;;;;5069868;28;20489;-76